createdAt,value
2018-06-10T00:00:13.934Z,28.06
2018-06-10T00:01:14.854Z,28.03
2018-06-10T00:02:14.210Z,28.11
2018-06-10T00:03:14.246Z,28.06
2018-06-10T00:05:14.118Z,28.08
2018-06-10T00:06:14.147Z,28.06
2018-06-10T00:07:14.182Z,28.05
2018-06-10T00:08:14.516Z,28.05
2018-06-10T00:09:14.557Z,28.05
2018-06-10T00:10:14.942Z,28.02
2018-06-10T00:11:14.325Z,28.06
2018-06-10T00:12:14.357Z,28.02
2018-06-10T00:13:14.696Z,28.05
2018-06-10T00:14:14.628Z,28.03
2018-06-10T00:15:14.663Z,27.93
2018-06-10T00:16:14.699Z,27.93
2018-06-10T00:17:14.484Z,27.88
2018-06-10T00:18:14.585Z,27.86
2018-06-10T00:19:14.607Z,27.84
2018-06-10T00:20:14.619Z,27.72
2018-06-10T00:21:15.011Z,27.68
2018-06-10T00:23:14.753Z,27.46
2018-06-10T00:24:15.117Z,27.48
2018-06-10T00:25:15.152Z,27.45
2018-06-10T00:27:15.184Z,27.33
2018-06-10T00:28:15.073Z,27.34
2018-06-10T00:29:15.105Z,27.20
2018-06-10T00:30:14.998Z,27.21
2018-06-10T00:31:14.973Z,27.15
2018-06-10T00:32:15.067Z,27.06
2018-06-10T00:33:15.221Z,27.03
2018-06-10T00:34:15.442Z,26.98
2018-06-10T00:35:15.178Z,27.01
2018-06-10T00:36:15.188Z,26.90
2018-06-10T00:37:15.239Z,26.87
2018-06-10T00:38:15.220Z,26.86
2018-06-10T00:39:15.251Z,26.79
2018-06-10T00:40:15.347Z,26.83
2018-06-10T00:41:15.675Z,26.76
2018-06-10T00:42:15.352Z,26.72
2018-06-10T00:43:15.391Z,26.73
2018-06-10T00:44:15.473Z,26.64
2018-06-10T00:45:15.512Z,26.64
2018-06-10T00:46:15.514Z,26.64
2018-06-10T00:47:15.533Z,26.61
2018-06-10T00:48:16.063Z,26.57
2018-06-10T00:49:15.629Z,26.60
2018-06-10T00:50:15.646Z,26.51
2018-06-10T00:51:15.717Z,26.49
2018-06-10T00:52:15.709Z,26.34
2018-06-10T00:53:15.744Z,26.42
2018-06-10T00:54:15.767Z,26.36
2018-06-10T00:55:16.273Z,26.35
2018-06-10T00:56:16.189Z,26.38
2018-06-10T00:57:15.867Z,26.36
2018-06-10T00:58:15.920Z,26.27
2018-06-10T00:59:15.941Z,26.31
2018-06-10T01:00:16.036Z,26.29
2018-06-10T01:01:16.007Z,26.31
2018-06-10T01:02:16.431Z,26.34
2018-06-10T01:03:16.105Z,26.35
2018-06-10T01:04:16.105Z,26.34
2018-06-10T01:05:16.161Z,26.31
2018-06-10T01:07:16.249Z,26.32
2018-06-10T01:09:16.583Z,26.32
2018-06-10T01:10:16.382Z,26.31
2018-06-10T01:11:16.358Z,26.28
2018-06-10T01:12:16.388Z,26.31
2018-06-10T01:13:16.417Z,26.32
2018-06-10T01:14:16.456Z,26.29
2018-06-10T01:15:16.590Z,26.20
2018-06-10T01:16:16.817Z,26.20
2018-06-10T01:17:16.556Z,26.27
2018-06-10T01:18:16.598Z,26.32
2018-06-10T01:19:16.619Z,26.23
2018-06-10T01:20:16.655Z,26.29
2018-06-10T01:21:16.688Z,26.31
2018-06-10T01:22:16.787Z,26.29
2018-06-10T01:23:17.682Z,26.31
2018-06-10T01:25:17.187Z,26.29
2018-06-10T01:26:16.912Z,26.27
2018-06-10T01:27:16.889Z,26.29
2018-06-10T01:28:16.932Z,26.27
2018-06-10T01:29:16.961Z,26.23
2018-06-10T01:30:17.353Z,26.09
2018-06-10T01:31:17.029Z,26.17
2018-06-10T01:32:17.116Z,26.12
2018-06-10T01:33:17.152Z,26.12
2018-06-10T01:34:17.394Z,26.11
2018-06-10T01:35:17.258Z,26.09
2018-06-10T01:36:17.450Z,26.08
2018-06-10T01:37:17.244Z,26.03
2018-06-10T01:38:17.315Z,26.04
2018-06-10T01:39:17.310Z,26.06
2018-06-10T01:40:17.447Z,26.01
2018-06-10T01:41:17.420Z,26.00
2018-06-10T01:42:17.650Z,26.04
2018-06-10T01:43:17.808Z,26.00
2018-06-10T01:44:17.522Z,25.98
2018-06-10T01:45:17.612Z,26.04
2018-06-10T01:46:17.590Z,26.04
2018-06-10T01:47:17.574Z,25.93
2018-06-10T01:48:17.854Z,26.01
2018-06-10T01:49:18.210Z,25.97
2018-06-10T01:50:17.725Z,26.04
2018-06-10T01:51:18.060Z,26.00
2018-06-10T01:52:17.822Z,25.91
2018-06-10T01:53:17.778Z,25.91
2018-06-10T01:54:18.116Z,25.86
2018-06-10T01:55:17.923Z,25.97
2018-06-10T01:56:17.934Z,25.89
2018-06-10T01:57:17.909Z,25.91
2018-06-10T01:58:17.993Z,25.91
2018-06-10T01:59:18.229Z,25.83
2018-06-10T02:00:18.368Z,25.96
2018-06-10T02:01:18.116Z,25.91
2018-06-10T02:02:18.157Z,25.94
2018-06-10T02:03:18.164Z,25.85
2018-06-10T02:04:18.393Z,25.79
2018-06-10T02:05:18.238Z,25.76
2018-06-10T02:06:18.477Z,25.75
2018-06-10T02:07:18.611Z,25.78
2018-06-10T02:08:18.293Z,25.79
2018-06-10T02:09:18.378Z,25.69
2018-06-10T02:10:18.398Z,25.79
2018-06-10T02:12:18.714Z,25.67
2018-06-10T02:14:18.483Z,25.64
2018-06-10T02:15:18.572Z,25.71
2018-06-10T02:16:18.600Z,25.78
2018-06-10T02:18:18.998Z,25.63
2018-06-10T02:19:18.699Z,25.71
2018-06-10T02:20:18.940Z,25.71
2018-06-10T02:21:18.765Z,25.60
2018-06-10T02:22:18.767Z,25.59
2018-06-10T02:23:18.792Z,25.61
2018-06-10T02:24:19.344Z,25.53
2018-06-10T02:25:18.921Z,25.54
2018-06-10T02:26:19.046Z,25.56
2018-06-10T02:27:18.972Z,25.54
2018-06-10T02:28:18.974Z,25.56
2018-06-10T02:29:18.993Z,25.56
2018-06-10T02:31:19.718Z,25.60
2018-06-10T02:32:19.093Z,25.71
2018-06-10T02:33:19.195Z,25.61
2018-06-10T02:34:19.273Z,25.67
2018-06-10T02:35:19.695Z,25.67
2018-06-10T02:37:19.588Z,25.75
2018-06-10T02:38:19.503Z,25.82
2018-06-10T02:39:19.339Z,25.78
2018-06-10T02:40:19.443Z,25.83
2018-06-10T02:41:19.817Z,25.83
2018-06-10T02:42:19.465Z,25.91
2018-06-10T02:43:20.267Z,25.98
2018-06-10T02:44:19.497Z,25.97
2018-06-10T02:45:19.787Z,25.98
2018-06-10T02:46:19.608Z,26.01
2018-06-10T02:47:19.956Z,26.03
2018-06-10T02:49:19.969Z,26.09
2018-06-10T02:50:19.755Z,26.13
2018-06-10T02:51:19.737Z,26.17
2018-06-10T02:52:20.008Z,26.17
2018-06-10T02:53:19.823Z,26.21
2018-06-10T02:54:20.598Z,26.21
2018-06-10T02:55:19.886Z,26.19
2018-06-10T02:56:20.161Z,26.19
2018-06-10T02:57:20.013Z,26.23
2018-06-10T02:58:20.026Z,26.27
2018-06-10T02:59:20.359Z,26.19
2018-06-10T03:00:20.089Z,26.29
2018-06-10T03:01:20.076Z,26.20
2018-06-10T03:02:20.358Z,26.20
2018-06-10T03:03:20.444Z,26.28
2018-06-10T03:04:20.188Z,26.23
2018-06-10T03:05:20.310Z,26.29
2018-06-10T03:06:20.246Z,26.31
2018-06-10T03:07:20.333Z,26.31
2018-06-10T03:08:20.491Z,26.32
2018-06-10T03:10:20.753Z,26.31
2018-06-10T03:12:21.165Z,26.34
2018-06-10T03:13:20.692Z,26.41
2018-06-10T03:15:20.906Z,26.32
2018-06-10T03:16:20.760Z,26.39
2018-06-10T03:17:20.933Z,26.35
2018-06-10T03:18:20.875Z,26.27
2018-06-10T03:19:21.061Z,26.36
2018-06-10T03:20:21.188Z,26.34
2018-06-10T03:21:20.819Z,26.32
2018-06-10T03:22:20.913Z,26.44
2018-06-10T03:23:21.825Z,26.46
2018-06-10T03:24:21.220Z,26.38
2018-06-10T03:25:20.947Z,26.47
2018-06-10T03:26:21.745Z,26.36
2018-06-10T03:27:20.981Z,26.42
2018-06-10T03:28:21.750Z,26.38
2018-06-10T03:29:21.472Z,26.44
2018-06-10T03:30:21.480Z,26.46
2018-06-10T03:31:23.075Z,26.38
2018-06-10T03:32:22.376Z,26.50
2018-06-10T03:33:21.460Z,26.49
2018-06-10T03:34:22.436Z,26.47
2018-06-10T03:36:21.582Z,26.49
2018-06-10T03:37:21.709Z,26.41
2018-06-10T03:38:21.774Z,26.46
2018-06-10T03:39:21.421Z,26.50
2018-06-10T03:40:21.422Z,26.42
2018-06-10T03:41:22.228Z,26.41
2018-06-10T03:42:21.509Z,26.46
2018-06-10T03:43:21.940Z,26.49
2018-06-10T03:44:21.850Z,26.49
2018-06-10T03:45:22.280Z,26.42
2018-06-10T03:46:22.422Z,26.46
2018-06-10T03:47:21.763Z,26.47
2018-06-10T03:48:21.808Z,26.42
2018-06-10T03:49:22.021Z,26.47
2018-06-10T03:50:21.822Z,26.46
2018-06-10T03:51:21.817Z,26.46
2018-06-10T03:52:22.428Z,26.46
2018-06-10T03:55:22.079Z,26.50
2018-06-10T03:56:21.975Z,26.51
2018-06-10T03:57:22.065Z,26.49
2018-06-10T03:58:22.278Z,26.54
2018-06-10T03:59:22.576Z,26.54
2018-06-10T04:00:22.428Z,26.49
2018-06-10T04:01:22.197Z,26.56
2018-06-10T04:02:22.218Z,26.50
2018-06-10T04:03:22.650Z,26.50
2018-06-10T04:04:22.393Z,26.56
2018-06-10T04:05:22.288Z,26.54
2018-06-10T04:06:23.000Z,26.56
2018-06-10T04:07:22.689Z,26.49
2018-06-10T04:08:22.850Z,26.57
2018-06-10T04:09:22.781Z,26.53
2018-06-10T04:10:22.982Z,26.54
2018-06-10T04:11:22.936Z,26.59
2018-06-10T04:12:22.903Z,26.53
2018-06-10T04:13:23.208Z,26.60
2018-06-10T04:14:22.650Z,26.54
2018-06-10T04:15:22.666Z,26.49
2018-06-10T04:16:22.670Z,26.50
2018-06-10T04:17:22.697Z,26.56
2018-06-10T04:18:22.968Z,26.56
2018-06-10T04:19:23.529Z,26.54
2018-06-10T04:21:23.179Z,26.51
2018-06-10T04:22:23.577Z,26.59
2018-06-10T04:23:22.961Z,26.53
2018-06-10T04:24:23.289Z,26.59
2018-06-10T04:25:23.311Z,26.54
2018-06-10T04:26:23.041Z,26.60
2018-06-10T04:27:23.157Z,26.57
2018-06-10T04:28:23.739Z,26.59
2018-06-10T04:29:23.517Z,26.65
2018-06-10T04:30:23.582Z,26.60
2018-06-10T04:31:23.525Z,26.60
2018-06-10T04:32:24.442Z,26.64
2018-06-10T04:33:23.306Z,26.61
2018-06-10T04:34:23.323Z,26.53
2018-06-10T04:35:23.488Z,26.60
2018-06-10T04:36:23.379Z,26.65
2018-06-10T04:37:24.414Z,26.59
2018-06-10T04:38:23.813Z,26.64
2018-06-10T04:39:23.846Z,26.64
2018-06-10T04:40:23.472Z,26.61
2018-06-10T04:41:23.611Z,26.56
2018-06-10T04:42:23.998Z,26.61
2018-06-10T04:43:23.906Z,26.61
2018-06-10T04:44:23.659Z,26.65
2018-06-10T04:45:23.696Z,26.59
2018-06-10T04:47:24.165Z,26.65
2018-06-10T04:48:23.747Z,26.59
2018-06-10T04:49:24.528Z,26.65
2018-06-10T04:50:24.416Z,26.60
2018-06-10T04:51:23.899Z,26.61
2018-06-10T04:52:24.235Z,26.73
2018-06-10T04:53:24.318Z,26.60
2018-06-10T04:54:24.000Z,26.61
2018-06-10T04:56:24.344Z,26.69
2018-06-10T04:57:24.140Z,26.69
2018-06-10T04:58:24.199Z,26.73
2018-06-10T04:59:24.187Z,26.66
2018-06-10T05:00:24.774Z,26.75
2018-06-10T05:01:24.194Z,26.71
2018-06-10T05:02:24.545Z,26.68
2018-06-10T05:04:24.312Z,26.69
2018-06-10T05:05:24.971Z,26.79
2018-06-10T05:06:24.849Z,26.73
2018-06-10T05:07:24.783Z,26.72
2018-06-10T05:08:24.829Z,26.68
2018-06-10T05:09:25.350Z,26.78
2018-06-10T05:10:24.564Z,26.79
2018-06-10T05:11:24.589Z,26.81
2018-06-10T05:12:24.649Z,26.79
2018-06-10T05:13:24.767Z,26.83
2018-06-10T05:14:26.080Z,26.83
2018-06-10T05:15:24.724Z,26.76
2018-06-10T05:16:24.757Z,26.84
2018-06-10T05:17:25.384Z,26.88
2018-06-10T05:18:25.137Z,26.79
2018-06-10T05:19:26.000Z,26.83
2018-06-10T05:20:25.197Z,26.88
2018-06-10T05:21:26.906Z,26.86
2018-06-10T05:23:25.741Z,26.83
2018-06-10T05:24:25.287Z,26.83
2018-06-10T05:26:25.732Z,26.88
2018-06-10T05:27:25.105Z,26.90
2018-06-10T05:28:25.295Z,26.87
2018-06-10T05:30:25.298Z,26.87
2018-06-10T05:31:25.233Z,26.90
2018-06-10T05:32:25.573Z,26.91
2018-06-10T05:34:25.346Z,26.90
2018-06-10T05:35:25.497Z,26.93
2018-06-10T05:36:25.500Z,26.90
2018-06-10T05:37:25.898Z,26.83
2018-06-10T05:38:25.574Z,26.90
2018-06-10T05:39:25.874Z,26.90
2018-06-10T05:40:25.960Z,26.90
2018-06-10T05:41:25.941Z,26.94
2018-06-10T05:42:25.613Z,26.86
2018-06-10T05:44:25.680Z,26.96
2018-06-10T05:45:26.013Z,26.90
2018-06-10T05:46:26.064Z,26.90
2018-06-10T05:47:25.780Z,26.97
2018-06-10T05:48:25.870Z,26.94
2018-06-10T05:49:25.915Z,27.02
2018-06-10T05:50:25.959Z,27.02
2018-06-10T05:51:26.172Z,27.02
2018-06-10T05:52:26.564Z,26.98
2018-06-10T05:53:26.476Z,27.02
2018-06-10T05:54:26.387Z,26.97
2018-06-10T05:55:26.110Z,27.05
2018-06-10T05:56:26.394Z,27.03
2018-06-10T05:57:26.132Z,27.03
2018-06-10T05:58:26.312Z,27.08
2018-06-10T05:59:26.382Z,27.05
2018-06-10T06:00:26.490Z,27.09
2018-06-10T06:01:26.268Z,27.18
2018-06-10T06:02:26.339Z,27.18
2018-06-10T06:03:26.588Z,27.20
2018-06-10T06:04:26.572Z,27.20
2018-06-10T06:06:26.808Z,27.23
2018-06-10T06:07:26.732Z,27.25
2018-06-10T06:08:26.601Z,27.25
2018-06-10T06:09:26.900Z,27.31
2018-06-10T06:10:26.596Z,27.33
2018-06-10T06:11:26.662Z,27.30
2018-06-10T06:12:26.903Z,27.30
2018-06-10T06:13:27.048Z,27.43
2018-06-10T06:14:26.794Z,27.43
2018-06-10T06:15:26.752Z,27.45
2018-06-10T06:16:27.094Z,27.48
2018-06-10T06:17:26.826Z,27.46
2018-06-10T06:18:26.855Z,27.48
2018-06-10T06:19:27.099Z,27.45
2018-06-10T06:20:27.527Z,27.45
2018-06-10T06:21:27.015Z,27.53
2018-06-10T06:22:26.994Z,27.48
2018-06-10T06:24:27.067Z,27.53
2018-06-10T06:26:27.437Z,27.52
2018-06-10T06:27:27.228Z,27.55
2018-06-10T06:28:27.221Z,27.53
2018-06-10T06:29:27.332Z,27.61
2018-06-10T06:30:27.532Z,27.63
2018-06-10T06:31:27.347Z,27.62
2018-06-10T06:32:27.403Z,27.63
2018-06-10T06:33:27.835Z,27.63
2018-06-10T06:34:27.468Z,27.66
2018-06-10T06:35:27.513Z,27.66
2018-06-10T06:36:27.494Z,27.62
2018-06-10T06:37:27.586Z,27.68
2018-06-10T06:38:27.619Z,27.68
2018-06-10T06:39:27.679Z,27.63
2018-06-10T06:40:28.129Z,27.72
2018-06-10T06:41:27.866Z,27.65
2018-06-10T06:42:27.754Z,27.63
2018-06-10T06:44:27.795Z,27.71
2018-06-10T06:45:27.891Z,27.69
2018-06-10T06:46:27.843Z,27.65
2018-06-10T06:47:28.144Z,27.71
2018-06-10T06:48:27.970Z,27.69
2018-06-10T06:49:28.300Z,27.72
2018-06-10T06:50:28.198Z,27.71
2018-06-10T06:51:28.233Z,27.71
2018-06-10T06:52:28.165Z,27.66
2018-06-10T06:53:28.135Z,27.71
2018-06-10T06:54:28.779Z,27.77
2018-06-10T06:55:28.366Z,27.78
2018-06-10T06:56:28.241Z,27.78
2018-06-10T06:57:28.235Z,27.78
2018-06-10T06:58:28.462Z,27.78
2018-06-10T06:59:28.382Z,27.76
2018-06-10T07:00:28.783Z,27.81
2018-06-10T07:01:28.412Z,27.84
2018-06-10T07:02:28.613Z,27.84
2018-06-10T07:04:28.572Z,27.86
2018-06-10T07:05:28.711Z,27.84
2018-06-10T07:06:28.841Z,27.84
2018-06-10T07:07:28.628Z,27.84
2018-06-10T07:08:28.618Z,27.84
2018-06-10T07:09:28.696Z,27.81
2018-06-10T07:10:28.690Z,27.87
2018-06-10T07:11:29.073Z,27.86
2018-06-10T07:12:29.261Z,27.87
2018-06-10T07:13:28.840Z,27.83
2018-06-10T07:14:28.825Z,27.86
2018-06-10T07:15:28.912Z,27.88
2018-06-10T07:17:28.931Z,27.84
2018-06-10T07:19:29.299Z,27.96
2018-06-10T07:20:29.250Z,27.95
2018-06-10T07:21:29.128Z,27.99
2018-06-10T07:22:29.162Z,27.95
2018-06-10T07:23:29.203Z,28.01
2018-06-10T07:24:29.238Z,27.95
2018-06-10T07:25:29.467Z,27.99
2018-06-10T07:26:29.301Z,28.03
2018-06-10T07:27:29.284Z,28.02
2018-06-10T07:28:29.321Z,28.06
2018-06-10T07:29:29.733Z,28.03
2018-06-10T07:30:29.427Z,28.05
2018-06-10T07:31:29.724Z,28.06
2018-06-10T07:32:29.519Z,28.06
2018-06-10T07:33:29.563Z,28.01
2018-06-10T07:34:29.544Z,28.05
2018-06-10T07:35:29.628Z,28.06
2018-06-10T07:36:29.706Z,28.08
2018-06-10T07:37:30.246Z,28.09
2018-06-10T07:38:29.750Z,28.09
2018-06-10T07:39:29.768Z,28.13
2018-06-10T07:40:29.850Z,28.13
2018-06-10T07:41:29.793Z,28.13
2018-06-10T07:43:30.107Z,28.14
2018-06-10T07:44:30.096Z,28.20
2018-06-10T07:45:29.978Z,28.21
2018-06-10T07:46:30.169Z,28.23
2018-06-10T07:47:30.051Z,28.24
2018-06-10T07:48:30.158Z,28.18
2018-06-10T07:49:30.383Z,28.13
2018-06-10T07:50:30.510Z,28.23
2018-06-10T07:51:30.142Z,28.20
2018-06-10T07:52:30.379Z,28.27
2018-06-10T07:53:30.219Z,28.27
2018-06-10T07:54:30.300Z,28.20
2018-06-10T07:55:30.587Z,28.27
2018-06-10T07:56:30.375Z,28.24
2018-06-10T07:58:30.449Z,28.27
2018-06-10T07:59:30.428Z,28.24
2018-06-10T08:00:30.468Z,28.20
2018-06-10T08:01:31.153Z,28.28
2018-06-10T08:02:30.539Z,28.23
2018-06-10T08:03:30.782Z,28.21
2018-06-10T08:04:30.609Z,28.18
2018-06-10T08:05:30.730Z,28.20
2018-06-10T08:06:30.728Z,28.18
2018-06-10T08:07:31.091Z,28.23
2018-06-10T08:08:30.804Z,28.24
2018-06-10T08:09:30.843Z,28.21
2018-06-10T08:10:30.822Z,28.23
2018-06-10T08:11:30.908Z,28.24
2018-06-10T08:12:30.977Z,28.25
2018-06-10T08:13:31.285Z,28.17
2018-06-10T08:14:30.970Z,28.21
2018-06-10T08:15:31.012Z,28.18
2018-06-10T08:16:31.093Z,28.21
2018-06-10T08:17:31.076Z,28.25
2018-06-10T08:18:31.214Z,28.30
2018-06-10T08:19:31.405Z,28.32
2018-06-10T08:20:31.433Z,28.30
2018-06-10T08:21:31.221Z,28.25
2018-06-10T08:22:31.301Z,28.33
2018-06-10T08:23:31.292Z,28.36
2018-06-10T08:24:31.328Z,28.27
2018-06-10T08:25:31.613Z,28.36
2018-06-10T08:26:31.419Z,28.35
2018-06-10T08:27:31.741Z,28.30
2018-06-10T08:28:31.775Z,28.35
2018-06-10T08:29:31.507Z,28.28
2018-06-10T08:30:31.597Z,28.30
2018-06-10T08:31:31.648Z,28.38
2018-06-10T08:33:32.112Z,28.40
2018-06-10T08:34:31.941Z,28.39
2018-06-10T08:35:31.778Z,28.32
2018-06-10T08:36:31.768Z,28.39
2018-06-10T08:37:31.997Z,28.38
2018-06-10T08:38:32.184Z,28.46
2018-06-10T08:39:31.870Z,28.36
2018-06-10T08:40:32.356Z,28.40
2018-06-10T08:41:31.941Z,28.46
2018-06-10T08:42:32.026Z,28.40
2018-06-10T08:43:32.012Z,28.52
2018-06-10T08:44:32.049Z,28.54
2018-06-10T08:45:32.310Z,28.48
2018-06-10T08:46:32.168Z,28.52
2018-06-10T08:47:32.413Z,28.51
2018-06-10T08:48:32.397Z,28.58
2018-06-10T08:49:32.787Z,28.54
2018-06-10T08:50:32.314Z,28.55
2018-06-10T08:51:32.301Z,28.55
2018-06-10T08:52:32.690Z,28.65
2018-06-10T08:53:32.377Z,28.62
2018-06-10T08:54:32.661Z,28.60
2018-06-10T08:55:32.444Z,28.65
2018-06-10T08:56:32.483Z,28.65
2018-06-10T08:57:32.525Z,28.69
2018-06-10T08:58:32.562Z,28.64
2018-06-10T08:59:32.595Z,28.67
2018-06-10T09:00:32.630Z,28.65
2018-06-10T09:01:32.919Z,28.70
2018-06-10T09:02:32.708Z,28.70
2018-06-10T09:03:32.790Z,28.69
2018-06-10T09:04:32.868Z,28.72
2018-06-10T09:05:32.810Z,28.74
2018-06-10T09:06:32.847Z,28.62
2018-06-10T09:07:33.063Z,28.70
2018-06-10T09:08:33.289Z,28.72
2018-06-10T09:09:32.961Z,28.73
2018-06-10T09:10:33.046Z,28.79
2018-06-10T09:11:33.032Z,28.72
2018-06-10T09:12:33.065Z,28.72
2018-06-10T09:13:33.858Z,28.82
2018-06-10T09:14:33.137Z,28.82
2018-06-10T09:15:33.428Z,28.80
2018-06-10T09:16:33.211Z,28.77
2018-06-10T09:17:33.449Z,28.79
2018-06-10T09:18:33.339Z,28.80
2018-06-10T09:19:33.328Z,28.82
2018-06-10T09:20:33.368Z,28.82
2018-06-10T09:21:33.391Z,28.76
2018-06-10T09:22:33.883Z,28.77
2018-06-10T09:23:33.467Z,28.77
2018-06-10T09:24:33.503Z,28.83
2018-06-10T09:25:33.746Z,28.92
2018-06-10T09:26:33.575Z,28.82
2018-06-10T09:27:33.613Z,28.80
2018-06-10T09:28:33.650Z,28.87
2018-06-10T09:29:33.934Z,28.87
2018-06-10T09:30:33.776Z,28.82
2018-06-10T09:31:33.765Z,28.88
2018-06-10T09:32:33.794Z,28.79
2018-06-10T09:33:33.883Z,28.94
2018-06-10T09:34:33.924Z,28.88
2018-06-10T09:35:33.952Z,28.74
2018-06-10T09:36:34.593Z,28.83
2018-06-10T09:37:33.979Z,28.92
2018-06-10T09:38:34.013Z,28.89
2018-06-10T09:39:34.055Z,28.83
2018-06-10T09:40:34.182Z,28.88
2018-06-10T09:41:34.124Z,28.91
2018-06-10T09:42:34.187Z,28.87
2018-06-10T09:43:34.500Z,28.91
2018-06-10T09:44:34.623Z,28.87
2018-06-10T09:45:34.276Z,28.89
2018-06-10T09:46:34.310Z,28.92
2018-06-10T09:47:34.343Z,28.89
2018-06-10T09:48:34.379Z,29.02
2018-06-10T09:49:34.688Z,28.95
2018-06-10T09:50:34.555Z,28.91
2018-06-10T09:51:34.565Z,28.95
2018-06-10T09:52:34.559Z,28.92
2018-06-10T09:53:34.627Z,28.95
2018-06-10T09:54:34.605Z,29.02
2018-06-10T09:55:35.152Z,29.00
2018-06-10T09:56:34.697Z,29.10
2018-06-10T09:57:34.710Z,29.03
2018-06-10T09:58:34.803Z,28.98
2018-06-10T09:59:34.795Z,29.02
2018-06-10T10:00:34.871Z,29.02
2018-06-10T10:01:35.134Z,29.03
2018-06-10T10:02:34.895Z,29.12
2018-06-10T10:03:34.938Z,29.08
2018-06-10T10:04:34.967Z,29.03
2018-06-10T10:06:35.040Z,29.17
2018-06-10T10:07:35.127Z,29.20
2018-06-10T10:08:35.405Z,29.20
2018-06-10T10:09:35.155Z,29.10
2018-06-10T10:10:35.196Z,29.11
2018-06-10T10:11:35.228Z,29.12
2018-06-10T10:12:35.265Z,29.20
2018-06-10T10:13:35.303Z,29.18
2018-06-10T10:14:35.671Z,29.18
2018-06-10T10:15:35.378Z,29.14
2018-06-10T10:16:35.417Z,29.21
2018-06-10T10:17:35.448Z,29.17
2018-06-10T10:18:35.484Z,29.21
2018-06-10T10:19:35.526Z,29.17
2018-06-10T10:20:35.810Z,29.25
2018-06-10T10:21:35.653Z,29.25
2018-06-10T10:22:35.630Z,29.29
2018-06-10T10:23:35.695Z,29.27
2018-06-10T10:24:35.792Z,29.26
2018-06-10T10:25:35.807Z,29.35
2018-06-10T10:26:36.180Z,29.27
2018-06-10T10:27:35.829Z,29.21
2018-06-10T10:28:35.867Z,29.25
2018-06-10T10:29:35.894Z,29.27
2018-06-10T10:30:35.941Z,29.29
2018-06-10T10:31:35.967Z,29.20
2018-06-10T10:32:36.259Z,29.25
2018-06-10T10:33:36.042Z,29.23
2018-06-10T10:34:36.106Z,29.26
2018-06-10T10:35:36.131Z,29.30
2018-06-10T10:36:36.165Z,29.29
2018-06-10T10:37:36.188Z,29.33
2018-06-10T10:38:36.617Z,29.29
2018-06-10T10:39:36.358Z,29.23
2018-06-10T10:40:36.316Z,29.23
2018-06-10T10:41:36.360Z,29.33
2018-06-10T10:42:36.369Z,29.29
2018-06-10T10:43:36.443Z,29.29
2018-06-10T10:44:36.776Z,29.23
2018-06-10T10:45:36.489Z,29.30
2018-06-10T10:46:36.582Z,29.29
2018-06-10T10:47:36.893Z,29.25
2018-06-10T10:48:36.622Z,29.33
2018-06-10T10:49:36.735Z,29.30
2018-06-10T10:50:36.920Z,29.30
2018-06-10T10:51:36.708Z,29.32
2018-06-10T10:52:36.890Z,29.29
2018-06-10T10:53:36.787Z,29.35
2018-06-10T10:54:36.872Z,29.25
2018-06-10T10:55:36.861Z,29.39
2018-06-10T10:56:37.191Z,29.27
2018-06-10T10:57:36.983Z,29.35
2018-06-10T10:58:36.964Z,29.39
2018-06-10T10:59:36.999Z,29.30
2018-06-10T11:00:37.035Z,29.36
2018-06-10T11:01:37.093Z,29.37
2018-06-10T11:02:37.460Z,29.47
2018-06-10T11:03:37.153Z,29.47
2018-06-10T11:04:37.188Z,29.51
2018-06-10T11:05:37.223Z,29.47
2018-06-10T11:06:37.342Z,29.44
2018-06-10T11:07:37.460Z,29.47
2018-06-10T11:08:37.599Z,29.47
2018-06-10T11:09:37.375Z,29.49
2018-06-10T11:10:37.416Z,29.47
2018-06-10T11:11:37.512Z,29.48
2018-06-10T11:12:37.497Z,29.45
2018-06-10T11:13:37.820Z,29.47
2018-06-10T11:14:37.607Z,29.47
2018-06-10T11:15:38.275Z,29.45
2018-06-10T11:16:37.791Z,29.39
2018-06-10T11:17:37.705Z,29.55
2018-06-10T11:18:37.725Z,29.47
2018-06-10T11:19:37.831Z,29.52
2018-06-10T11:20:37.836Z,29.52
2018-06-10T11:21:37.828Z,29.52
2018-06-10T11:22:38.170Z,29.57
2018-06-10T11:23:37.902Z,29.57
2018-06-10T11:24:38.054Z,29.55
2018-06-10T11:25:37.967Z,29.49
2018-06-10T11:26:38.205Z,29.49
2018-06-10T11:27:38.045Z,29.62
2018-06-10T11:28:38.093Z,29.51
2018-06-10T11:29:38.428Z,29.62
2018-06-10T11:30:38.161Z,29.58
2018-06-10T11:31:38.210Z,29.64
2018-06-10T11:32:38.235Z,29.58
2018-06-10T11:33:38.269Z,29.63
2018-06-10T11:34:38.312Z,29.58
2018-06-10T11:35:38.346Z,29.66
2018-06-10T11:36:38.390Z,29.63
2018-06-10T11:37:38.480Z,29.66
2018-06-10T11:38:38.462Z,29.66
2018-06-10T11:39:38.614Z,29.70
2018-06-10T11:40:38.543Z,29.63
2018-06-10T11:41:38.588Z,29.67
2018-06-10T11:42:38.917Z,29.74
2018-06-10T11:43:38.642Z,29.74
2018-06-10T11:44:38.682Z,29.70
2018-06-10T11:45:38.721Z,29.71
2018-06-10T11:46:38.756Z,29.78
2018-06-10T11:47:38.795Z,29.76
2018-06-10T11:48:38.833Z,29.81
2018-06-10T11:49:39.257Z,29.81
2018-06-10T11:50:38.904Z,29.79
2018-06-10T11:51:38.990Z,29.82
2018-06-10T11:52:38.979Z,29.84
2018-06-10T11:53:39.030Z,29.79
2018-06-10T11:54:39.091Z,29.82
2018-06-10T11:55:39.172Z,29.82
2018-06-10T11:56:39.438Z,29.82
2018-06-10T11:57:39.225Z,29.89
2018-06-10T11:58:39.220Z,29.81
2018-06-10T11:59:39.242Z,29.85
2018-06-10T12:00:39.280Z,29.86
2018-06-10T12:01:39.315Z,29.85
2018-06-10T12:02:39.351Z,29.92
2018-06-10T12:03:39.638Z,29.89
2018-06-10T12:04:39.468Z,29.88
2018-06-10T12:05:39.471Z,29.94
2018-06-10T12:06:39.553Z,29.95
2018-06-10T12:07:39.542Z,29.92
2018-06-10T12:08:39.587Z,29.84
2018-06-10T12:09:39.623Z,29.85
2018-06-10T12:10:40.027Z,29.99
2018-06-10T12:11:39.692Z,29.89
2018-06-10T12:12:39.749Z,29.91
2018-06-10T12:13:39.789Z,29.81
2018-06-10T12:14:39.807Z,29.85
2018-06-10T12:15:39.943Z,29.95
2018-06-10T12:16:39.927Z,29.88
2018-06-10T12:17:40.168Z,29.89
2018-06-10T12:18:39.960Z,29.86
2018-06-10T12:19:39.990Z,29.86
2018-06-10T12:20:40.033Z,29.94
2018-06-10T12:21:40.106Z,30.00
2018-06-10T12:22:40.182Z,30.01
2018-06-10T12:23:40.167Z,30.01
2018-06-10T12:24:40.481Z,29.99
2018-06-10T12:25:40.222Z,29.97
2018-06-10T12:26:40.262Z,30.03
2018-06-10T12:27:40.295Z,29.97
2018-06-10T12:28:40.346Z,30.07
2018-06-10T12:29:40.373Z,30.01
2018-06-10T12:30:40.418Z,30.08
2018-06-10T12:31:40.752Z,30.06
2018-06-10T12:32:40.490Z,30.07
2018-06-10T12:33:40.526Z,30.10
2018-06-10T12:34:40.600Z,30.08
2018-06-10T12:35:40.598Z,30.10
2018-06-10T12:37:40.924Z,30.15
2018-06-10T12:38:40.714Z,30.16
2018-06-10T12:39:40.807Z,30.13
2018-06-10T12:40:40.794Z,30.11
2018-06-10T12:41:40.827Z,30.19
2018-06-10T12:42:41.065Z,30.11
2018-06-10T12:43:41.230Z,30.18
2018-06-10T12:44:40.994Z,30.16
2018-06-10T12:45:40.980Z,30.28
2018-06-10T12:46:41.280Z,30.28
2018-06-10T12:47:41.068Z,30.29
2018-06-10T12:48:41.924Z,30.25
2018-06-10T12:50:41.523Z,30.23
2018-06-10T12:51:41.266Z,30.28
2018-06-10T12:53:41.641Z,30.23
2018-06-10T12:55:41.484Z,30.29
2018-06-10T12:56:41.461Z,30.30
2018-06-10T12:57:42.717Z,30.32
2018-06-10T12:58:41.502Z,30.40
2018-06-10T12:59:41.517Z,30.40
2018-06-10T13:00:41.574Z,30.44
2018-06-10T13:01:41.618Z,30.42
2018-06-10T13:02:41.644Z,30.40
2018-06-10T13:05:42.074Z,30.46
2018-06-10T13:06:41.787Z,30.51
2018-06-10T13:07:41.880Z,30.49
2018-06-10T13:08:42.027Z,30.59
2018-06-10T13:09:41.919Z,30.57
2018-06-10T13:10:42.013Z,30.60
2018-06-10T13:11:42.292Z,30.59
2018-06-10T13:12:42.023Z,30.56
2018-06-10T13:13:42.068Z,30.61
2018-06-10T13:14:42.102Z,30.68
2018-06-10T13:15:42.142Z,30.76
2018-06-10T13:16:42.235Z,30.70
2018-06-10T13:17:42.226Z,30.67
2018-06-10T13:18:42.258Z,30.73
2018-06-10T13:19:42.379Z,30.68
2018-06-10T13:20:42.336Z,30.73
2018-06-10T13:21:42.382Z,30.75
2018-06-10T13:22:42.478Z,30.66
2018-06-10T13:23:42.710Z,30.68
2018-06-10T13:24:42.566Z,30.76
2018-06-10T13:25:42.543Z,30.78
2018-06-10T13:26:42.584Z,30.76
2018-06-10T13:27:42.616Z,30.75
2018-06-10T13:28:42.856Z,30.83
2018-06-10T13:29:42.964Z,30.88
2018-06-10T13:30:42.736Z,30.91
2018-06-10T13:31:42.773Z,30.91
2018-06-10T13:32:42.811Z,30.86
2018-06-10T13:33:42.883Z,30.93
2018-06-10T13:34:42.900Z,31.01
2018-06-10T13:35:43.244Z,31.03
2018-06-10T13:36:42.993Z,31.01